createdAt,value
2023-03-29T00:01:43.573Z,68.16
2023-03-29T00:04:47.272Z,67.34
2023-03-29T00:07:54.522Z,67.49
2023-03-29T00:10:59.556Z,68.07
2023-03-29T00:14:02.824Z,68.28
2023-03-29T00:17:06.700Z,67.45
2023-03-29T00:20:10.491Z,67.25
2023-03-29T00:23:13.542Z,66.73
2023-03-29T00:26:16.605Z,67.14
2023-03-29T00:29:19.870Z,67.40
2023-03-29T00:32:22.802Z,67.49
2023-03-29T00:35:25.959Z,67.33
2023-03-29T00:38:28.869Z,67.44
2023-03-29T00:41:32.011Z,67.09
2023-03-29T00:44:59.742Z,66.60
2023-03-29T00:48:07.283Z,68.24
2023-03-29T00:51:14.534Z,68.75
2023-03-29T00:54:18.917Z,69.85
2023-03-29T00:57:26.483Z,72.24
2023-03-29T01:00:37.582Z,71.83
2023-03-29T01:03:46.716Z,72.79
2023-03-29T01:07:01.183Z,74.22
2023-03-29T01:10:19.707Z,73.90
2023-03-29T01:13:39.516Z,74.23
2023-03-29T01:16:42.779Z,73.57
2023-03-29T01:19:51.093Z,72.97
2023-03-29T01:23:03.082Z,72.40
2023-03-29T01:26:40.408Z,73.35
2023-03-29T01:29:50.278Z,73.30
2023-03-29T01:33:14.624Z,73.29
2023-03-29T01:36:37.865Z,72.94
2023-03-29T01:39:40.960Z,73.82
2023-03-29T01:43:19.412Z,72.87
2023-03-29T01:46:46.045Z,74.28
2023-03-29T01:50:02.019Z,73.19
2023-03-29T01:53:25.703Z,74.49
2023-03-29T01:56:30.196Z,76.02
2023-03-29T01:59:36.228Z,76.14
2023-03-29T02:02:43.503Z,75.47
2023-03-29T02:05:47.051Z,73.95
2023-03-29T02:08:51.697Z,75.28
2023-03-29T02:11:59.051Z,74.89
2023-03-29T02:15:02.318Z,74.29
2023-03-29T02:18:06.894Z,73.86
2023-03-29T02:21:21.636Z,73.86
2023-03-29T02:24:26.416Z,73.34
2023-03-29T02:27:30.259Z,73.83
2023-03-29T02:30:57.944Z,73.92
2023-03-29T02:34:09.031Z,74.82
2023-03-29T02:37:18.170Z,74.62
2023-03-29T02:40:24.009Z,73.89
2023-03-29T02:43:29.256Z,76.06
2023-03-29T02:46:32.828Z,74.78
2023-03-29T02:49:35.687Z,75.60
2023-03-29T02:52:43.506Z,76.03
2023-03-29T02:55:47.164Z,76.13
2023-03-29T02:58:50.773Z,76.00
2023-03-29T03:01:54.042Z,75.96
2023-03-29T03:04:58.049Z,75.67
2023-03-29T03:08:01.289Z,75.03
2023-03-29T03:11:06.154Z,75.92
2023-03-29T03:14:09.660Z,75.73
2023-03-29T03:17:12.853Z,74.84
2023-03-29T03:20:15.776Z,76.80
2023-03-29T03:23:19.376Z,76.84
2023-03-29T03:26:25.162Z,76.13
2023-03-29T03:29:29.162Z,77.86
2023-03-29T03:32:36.985Z,77.13
2023-03-29T03:35:42.857Z,76.43
2023-03-29T03:38:46.346Z,76.58
2023-03-29T03:41:49.449Z,76.29
2023-03-29T03:44:52.353Z,78.03
2023-03-29T03:47:56.907Z,76.45
2023-03-29T03:51:00.503Z,76.48
2023-03-29T03:54:05.830Z,76.46
2023-03-29T03:57:11.847Z,76.69
2023-03-29T04:00:21.650Z,76.57
2023-03-29T04:03:25.572Z,79.12
2023-03-29T04:06:30.819Z,77.99
2023-03-29T04:09:37.817Z,77.41
2023-03-29T04:12:42.175Z,78.11
2023-03-29T04:15:46.303Z,78.57
2023-03-29T04:18:50.482Z,79.11
2023-03-29T04:21:53.864Z,79.00
2023-03-29T04:24:57.570Z,78.18
2023-03-29T04:28:03.016Z,77.45
2023-03-29T04:31:12.673Z,77.85
2023-03-29T04:37:22.374Z,76.40
2023-03-29T04:40:25.704Z,75.74
2023-03-29T04:43:30.867Z,77.17
2023-03-29T04:46:35.033Z,77.64
2023-03-29T04:49:40.118Z,77.21
2023-03-29T04:52:45.763Z,77.11
2023-03-29T04:55:48.888Z,77.15
2023-03-29T04:58:52.420Z,77.39
2023-03-29T05:01:57.396Z,77.67
2023-03-29T05:05:00.800Z,77.68
2023-03-29T05:08:05.004Z,78.02
2023-03-29T05:11:11.103Z,77.66
2023-03-29T05:14:14.021Z,77.44
2023-03-29T05:17:17.306Z,77.04
2023-03-29T05:20:20.310Z,77.34
2023-03-29T05:23:24.038Z,77.10
2023-03-29T05:26:29.912Z,76.43
2023-03-29T05:29:33.322Z,76.10
2023-03-29T05:32:40.759Z,75.65
2023-03-29T05:35:44.429Z,75.84
2023-03-29T05:38:47.463Z,76.10
2023-03-29T05:41:50.889Z,76.07
2023-03-29T05:44:54.897Z,75.63
2023-03-29T05:47:58.912Z,75.50
2023-03-29T05:51:03.775Z,75.01
2023-03-29T05:54:07.251Z,74.09
2023-03-29T05:57:10.165Z,73.86
2023-03-29T06:00:22.658Z,73.54
2023-03-29T06:03:27.799Z,72.41
2023-03-29T06:06:32.046Z,72.46
2023-03-29T06:09:35.430Z,71.66
2023-03-29T06:12:39.085Z,70.82
2023-03-29T06:15:42.262Z,69.69
2023-03-29T06:18:45.492Z,69.82
2023-03-29T06:21:48.841Z,68.74
2023-03-29T06:24:52.938Z,67.80
2023-03-29T06:27:57.761Z,66.76
2023-03-29T06:31:03.632Z,67.92
2023-03-29T06:34:09.099Z,67.84
2023-03-29T06:37:14.228Z,66.46
2023-03-29T06:40:25.035Z,66.59
2023-03-29T06:43:28.111Z,65.63
2023-03-29T06:46:38.040Z,66.12
2023-03-29T06:49:41.533Z,65.39
2023-03-29T06:52:46.349Z,64.13
2023-03-29T06:55:52.316Z,63.81
2023-03-29T06:58:56.983Z,60.21
2023-03-29T07:02:01.181Z,58.56
2023-03-29T07:05:11.584Z,56.27
2023-03-29T07:08:16.703Z,54.28
2023-03-29T07:11:20.920Z,55.02
2023-03-29T07:14:28.893Z,53.46
2023-03-29T07:17:32.551Z,50.45
2023-03-29T07:20:38.807Z,54.95
2023-03-29T07:23:42.298Z,54.32
2023-03-29T07:27:00.205Z,51.36
2023-03-29T07:30:11.710Z,52.96
2023-03-29T07:33:15.037Z,51.33
2023-03-29T07:36:19.927Z,49.65
2023-03-29T07:39:23.244Z,48.57
2023-03-29T07:42:30.504Z,48.43
2023-03-29T07:45:34.022Z,49.59
2023-03-29T07:48:37.474Z,49.18
2023-03-29T07:51:40.393Z,48.01
2023-03-29T07:54:43.940Z,48.85
2023-03-29T07:57:47.120Z,46.91
2023-03-29T08:00:50.987Z,46.24
2023-03-29T08:03:55.403Z,43.72
2023-03-29T08:06:59.998Z,43.86
2023-03-29T08:10:04.258Z,42.86
2023-03-29T08:13:09.585Z,42.53
2023-03-29T08:16:13.215Z,40.32
2023-03-29T08:19:16.861Z,40.36
2023-03-29T08:22:22.213Z,40.15
2023-03-29T08:25:33.734Z,40.33
2023-03-29T08:28:36.873Z,40.77
2023-03-29T08:31:40.466Z,40.35
2023-03-29T08:34:44.150Z,38.04
2023-03-29T08:37:47.690Z,36.98
2023-03-29T08:40:50.955Z,36.34
2023-03-29T08:44:16.929Z,34.93
2023-03-29T08:47:30.084Z,34.41
2023-03-29T08:50:39.498Z,33.85
2023-03-29T08:53:47.195Z,34.72
2023-03-29T08:56:52.387Z,34.17
2023-03-29T08:59:58.663Z,33.15
2023-03-29T09:03:03.085Z,34.46
2023-03-29T09:06:09.204Z,33.00
2023-03-29T09:09:17.794Z,32.68
2023-03-29T09:12:44.572Z,31.88
2023-03-29T09:16:06.025Z,32.41
2023-03-29T09:19:25.968Z,32.12
2023-03-29T09:22:46.877Z,30.42
2023-03-29T09:25:59.141Z,30.63
2023-03-29T09:29:23.971Z,30.53
2023-03-29T09:32:44.361Z,30.68
2023-03-29T09:35:55.537Z,31.70
2023-03-29T09:38:59.914Z,32.18
2023-03-29T09:42:09.402Z,32.54
2023-03-29T09:45:13.473Z,32.48
2023-03-29T09:48:19.562Z,33.97
2023-03-29T09:51:28.486Z,33.50
2023-03-29T09:54:32.776Z,33.24
2023-03-29T09:57:40.976Z,33.84
2023-03-29T10:00:45.579Z,33.53
2023-03-29T10:03:53.602Z,33.46
2023-03-29T10:07:00.366Z,31.80
2023-03-29T10:10:08.437Z,30.32
2023-03-29T10:13:19.194Z,29.61
2023-03-29T10:16:24.924Z,30.64
2023-03-29T10:19:35.112Z,31.19
2023-03-29T10:22:40.660Z,30.17
2023-03-29T10:25:43.527Z,30.65
2023-03-29T10:28:46.816Z,30.03
2023-03-29T10:31:50.568Z,30.78
2023-03-29T10:34:54.924Z,30.23
2023-03-29T10:37:59.623Z,30.25
2023-03-29T10:41:11.883Z,30.94
2023-03-29T10:44:29.337Z,29.88
2023-03-29T10:47:34.604Z,30.16
2023-03-29T10:50:38.437Z,29.52
2023-03-29T10:53:42.838Z,29.07
2023-03-29T10:56:58.266Z,28.76
2023-03-29T11:00:27.376Z,29.00
2023-03-29T11:03:40.685Z,30.08
2023-03-29T11:06:56.528Z,30.02
2023-03-29T11:10:28.641Z,29.04
2023-03-29T11:14:23.672Z,29.90
2023-03-29T11:17:32.820Z,31.17
2023-03-29T11:20:44.943Z,29.35
2023-03-29T11:24:13.164Z,29.69
2023-03-29T11:27:30.295Z,29.17
2023-03-29T11:30:48.662Z,28.94
2023-03-29T11:34:15.791Z,29.19
2023-03-29T11:37:50.046Z,29.60
2023-03-29T11:41:11.178Z,30.54
2023-03-29T11:44:19.881Z,30.19
2023-03-29T11:47:27.658Z,30.38
2023-03-29T11:50:45.179Z,30.63
2023-03-29T11:53:58.610Z,31.02
2023-03-29T11:57:12.550Z,32.07
2023-03-29T12:00:19.373Z,31.44
2023-03-29T12:03:44.740Z,30.64
2023-03-29T12:07:24.242Z,31.97
2023-03-29T12:10:36.532Z,30.18
2023-03-29T12:13:45.316Z,30.33
2023-03-29T12:16:57.565Z,30.23
2023-03-29T12:20:07.295Z,29.71
2023-03-29T12:23:17.033Z,28.12
2023-03-29T12:26:40.737Z,29.46
2023-03-29T12:30:03.037Z,29.82
2023-03-29T12:33:29.518Z,29.78
2023-03-29T12:36:57.701Z,29.62
2023-03-29T12:40:13.239Z,29.27
2023-03-29T12:43:33.020Z,29.51
2023-03-29T12:46:36.894Z,29.59
2023-03-29T12:49:41.104Z,29.54
2023-03-29T12:52:43.955Z,29.72
2023-03-29T12:55:50.772Z,29.66
2023-03-29T12:59:12.039Z,29.53
2023-03-29T13:02:15.973Z,29.81
2023-03-29T13:05:34.848Z,29.58
2023-03-29T13:08:44.170Z,28.94
2023-03-29T13:11:57.420Z,27.84
2023-03-29T13:15:06.406Z,26.65
2023-03-29T13:18:48.868Z,26.76
2023-03-29T13:22:07.609Z,27.24
2023-03-29T13:25:41.598Z,27.66
2023-03-29T13:29:19.012Z,28.00
2023-03-29T13:32:28.069Z,29.20
2023-03-29T13:35:40.318Z,29.49
2023-03-29T13:38:51.922Z,29.81
2023-03-29T13:42:07.391Z,30.73
2023-03-29T13:45:17.549Z,31.32
2023-03-29T13:48:30.059Z,31.24
2023-03-29T13:51:37.288Z,30.76
2023-03-29T13:55:02.235Z,31.00
2023-03-29T13:58:14.184Z,31.72
2023-03-29T14:01:23.489Z,30.69
2023-03-29T14:04:34.624Z,30.54
2023-03-29T14:07:40.217Z,31.01
2023-03-29T14:10:45.520Z,32.38
2023-03-29T14:13:49.202Z,32.86
2023-03-29T14:16:54.320Z,33.76
2023-03-29T14:19:59.773Z,32.70
2023-03-29T14:23:10.471Z,32.73
2023-03-29T14:26:19.184Z,32.71
2023-03-29T14:29:25.040Z,32.36
2023-03-29T14:32:31.139Z,33.06
2023-03-29T14:35:34.798Z,33.29
2023-03-29T14:38:38.189Z,33.22
2023-03-29T14:41:47.867Z,32.81
2023-03-29T14:44:51.250Z,33.24
2023-03-29T14:47:54.797Z,33.68
2023-03-29T14:50:57.933Z,34.49
2023-03-29T14:54:04.144Z,34.78
2023-03-29T14:57:07.595Z,34.84
2023-03-29T15:00:26.261Z,34.98
2023-03-29T15:03:29.653Z,35.10
2023-03-29T15:06:38.750Z,35.15
2023-03-29T15:09:45.335Z,36.02
2023-03-29T15:12:49.821Z,36.14
2023-03-29T15:15:56.692Z,37.05
2023-03-29T15:19:02.238Z,37.86
2023-03-29T15:22:11.819Z,39.23
2023-03-29T15:25:19.981Z,39.63
2023-03-29T15:28:30.190Z,40.11
2023-03-29T15:31:36.296Z,40.98
2023-03-29T15:34:39.413Z,42.70
2023-03-29T15:37:43.813Z,44.11
2023-03-29T15:40:48.470Z,44.67
2023-03-29T15:43:51.664Z,45.41
2023-03-29T15:47:00.022Z,46.07
2023-03-29T15:50:03.467Z,46.88
2023-03-29T15:53:15.197Z,47.96
2023-03-29T15:56:23.157Z,49.22
2023-03-29T15:59:26.373Z,49.37
2023-03-29T16:02:29.987Z,50.86
2023-03-29T16:05:33.760Z,50.71
2023-03-29T16:08:36.806Z,51.66
2023-03-29T16:11:41.998Z,51.65
2023-03-29T16:14:45.176Z,51.98
2023-03-29T16:17:48.571Z,52.38
2023-03-29T16:20:52.029Z,52.67
2023-03-29T16:23:55.618Z,52.97
2023-03-29T16:26:59.962Z,53.25
2023-03-29T16:30:04.064Z,54.56
2023-03-29T16:33:08.969Z,53.77
2023-03-29T16:36:12.626Z,54.30
2023-03-29T16:39:16.414Z,54.64
2023-03-29T16:42:19.618Z,55.58
2023-03-29T16:45:23.595Z,56.18
2023-03-29T16:48:27.325Z,56.18
2023-03-29T16:51:31.176Z,56.61
2023-03-29T16:54:34.555Z,56.58
2023-03-29T16:57:37.537Z,56.55
2023-03-29T17:00:41.244Z,57.20
2023-03-29T17:03:45.964Z,57.54
2023-03-29T17:06:49.587Z,58.07
2023-03-29T17:09:52.839Z,58.16
2023-03-29T17:12:56.385Z,58.69
2023-03-29T17:15:59.763Z,59.00
2023-03-29T17:19:03.379Z,58.98
2023-03-29T17:22:06.949Z,59.04
2023-03-29T17:25:10.677Z,59.04
2023-03-29T17:28:13.979Z,59.13
2023-03-29T17:31:19.933Z,59.06
2023-03-29T17:34:23.999Z,58.91
2023-03-29T17:37:31.131Z,59.17
2023-03-29T17:40:34.366Z,59.05
2023-03-29T17:43:38.319Z,59.39
2023-03-29T17:46:41.549Z,59.08
2023-03-29T17:49:45.170Z,58.97
2023-03-29T17:52:52.649Z,58.59
2023-03-29T17:55:56.851Z,58.50
2023-03-29T17:59:00.839Z,58.16
2023-03-29T18:02:06.334Z,58.34
2023-03-29T18:05:15.295Z,58.29
2023-03-29T18:08:19.244Z,59.18
2023-03-29T18:11:25.449Z,57.96
2023-03-29T18:14:29.007Z,58.52
2023-03-29T18:17:33.237Z,58.28
2023-03-29T18:20:36.585Z,58.68
2023-03-29T18:23:42.654Z,59.05
2023-03-29T18:26:45.949Z,58.66
2023-03-29T18:29:50.824Z,58.42
2023-03-29T18:32:55.115Z,58.54
2023-03-29T18:35:58.752Z,58.23
2023-03-29T18:39:06.011Z,58.68
2023-03-29T18:42:12.277Z,59.15
2023-03-29T18:45:17.014Z,59.36
2023-03-29T18:48:23.326Z,59.78
2023-03-29T18:51:29.313Z,61.23
2023-03-29T18:54:34.840Z,60.53
2023-03-29T18:57:39.140Z,60.94
2023-03-29T19:00:45.053Z,60.99
2023-03-29T19:03:49.372Z,61.04
2023-03-29T19:06:56.684Z,60.92
2023-03-29T19:10:00.760Z,61.16
2023-03-29T19:13:06.377Z,60.92
2023-03-29T19:16:11.186Z,60.35
2023-03-29T19:19:15.077Z,60.39
2023-03-29T19:22:19.161Z,61.06
2023-03-29T19:25:24.066Z,62.05
2023-03-29T19:28:28.167Z,61.18
2023-03-29T19:31:36.618Z,61.54
2023-03-29T19:34:41.418Z,60.80
2023-03-29T19:37:45.894Z,62.11
2023-03-29T19:40:52.228Z,63.48
2023-03-29T19:43:57.042Z,63.34
2023-03-29T19:47:01.022Z,64.38
2023-03-29T19:50:06.022Z,64.40
2023-03-29T19:53:12.185Z,63.56
2023-03-29T19:56:16.275Z,63.01
2023-03-29T19:59:20.791Z,62.85
2023-03-29T20:02:27.781Z,63.52
2023-03-29T20:05:31.660Z,63.24
2023-03-29T20:08:39.176Z,62.31
2023-03-29T20:11:44.570Z,62.83
2023-03-29T20:14:47.626Z,62.51
2023-03-29T20:17:53.199Z,61.97
2023-03-29T20:20:57.687Z,63.27
2023-03-29T20:24:01.417Z,62.45
2023-03-29T20:27:04.755Z,62.61
2023-03-29T20:30:10.152Z,62.40
2023-03-29T20:33:13.689Z,62.94
2023-03-29T20:36:23.155Z,62.62
2023-03-29T20:39:26.968Z,63.34
2023-03-29T20:42:31.166Z,63.67
2023-03-29T20:45:42.931Z,63.83
2023-03-29T20:48:54.984Z,62.84
2023-03-29T20:52:03.539Z,62.20
2023-03-29T20:55:06.938Z,62.49
2023-03-29T20:58:09.823Z,62.00
2023-03-29T21:01:14.567Z,61.56
2023-03-29T21:04:17.471Z,60.97
2023-03-29T21:07:21.944Z,60.58
2023-03-29T21:10:26.444Z,60.58
2023-03-29T21:13:29.558Z,60.74
2023-03-29T21:16:32.484Z,60.52
2023-03-29T21:19:38.339Z,60.63
2023-03-29T21:22:43.338Z,60.21
2023-03-29T21:25:46.402Z,60.65
2023-03-29T21:28:49.285Z,60.23
2023-03-29T21:31:52.375Z,60.41
2023-03-29T21:34:55.207Z,60.23
2023-03-29T21:37:58.282Z,60.08
2023-03-29T21:41:02.662Z,60.05
2023-03-29T21:44:06.276Z,59.78
2023-03-29T21:47:09.338Z,59.11
2023-03-29T21:50:12.698Z,58.71
2023-03-29T21:53:16.295Z,58.53
2023-03-29T21:56:19.364Z,58.54
2023-03-29T21:59:22.055Z,58.70
2023-03-29T22:02:25.376Z,58.69
2023-03-29T22:05:28.685Z,59.18
2023-03-29T22:08:31.774Z,59.33
2023-03-29T22:11:34.955Z,59.85
2023-03-29T22:14:37.851Z,59.80
2023-03-29T22:17:43.001Z,59.89
2023-03-29T22:20:46.929Z,60.29
2023-03-29T22:23:52.788Z,60.82
2023-03-29T22:26:55.576Z,60.48
2023-03-29T22:29:59.012Z,60.74
2023-03-29T22:33:01.897Z,60.49
2023-03-29T22:36:27.141Z,60.40
2023-03-29T22:39:30.249Z,60.83
2023-03-29T22:42:33.379Z,60.71
2023-03-29T22:45:36.574Z,60.59
2023-03-29T22:48:40.260Z,60.96
2023-03-29T22:51:43.133Z,61.06
2023-03-29T22:54:46.494Z,61.06
2023-03-29T22:57:49.402Z,60.91
2023-03-29T23:00:53.415Z,61.11
2023-03-29T23:03:56.491Z,61.39
2023-03-29T23:07:00.468Z,61.18
2023-03-29T23:10:07.854Z,60.82
2023-03-29T23:13:13.079Z,61.28
2023-03-29T23:16:15.981Z,60.86
2023-03-29T23:19:19.438Z,61.15
2023-03-29T23:22:22.883Z,61.37
2023-03-29T23:25:27.777Z,61.45
2023-03-29T23:28:31.690Z,62.17
2023-03-29T23:31:37.953Z,62.29
2023-03-29T23:34:40.980Z,61.80
2023-03-29T23:37:45.188Z,61.71
2023-03-29T23:40:58.969Z,61.90
2023-03-29T23:44:03.833Z,62.42
2023-03-29T23:47:07.445Z,62.40
2023-03-29T23:50:17.004Z,62.55
2023-03-29T23:53:21.071Z,62.35
2023-03-29T23:56:24.525Z,62.19
2023-03-29T23:59:30.838Z,62.19
